Main page
METAR-TAF:

METAR-TAF

Airports :

Vientiane, Laos

Wattay International Airport

latitude: 17-57N, longitude: 102-34E, elevation: 171 m

Current weather observation

The report was made 35 minutes ago, at 16:00 UTC
Calm wind
Temperature 26°C
Humidity 94%
Pressure 1010 hPa
Visibility: 4000 m
Scattered clouds at a height of 4000 ft
mist

METAR: VLVT 221600Z 00000KT 4000 BR SCT040 26/25 Q1010 NOSIG

Time: 23:35 (16:35 UTC)

Forecast

The report was made 5 hours and 35 minutes ago, at 11:00 UTC
Forecast valid from 22 at 12 UTC to 23 at 12 UTC
Wind 4 kt from the West
Visibility: 8000 m
Scattered clouds at a height of 1600 ft
Scattered clouds at a height of 4000 ft
Broken clouds at a height of 8300 ft
Temporary
from 22 at 13 UTC to 22 at 15 UTC
Visibility: 4000 m
Few clouds at a height of 1000 ft
Broken clouds at a height of 8300 ft
rain

TAF: VLVT 221100Z 2212/2312 27004KT 8000 SCT016 SCT040 BKN083 TEMPO 2213/2215 4000 RA FEW010 BKN083

Weather observations and forecasts of more than 4000 airports (METAR and TAF reports).

The available stations are represented by yellow and red dots on the map.

Hover mouse over dot to see the name of the station.

Then click to see weather observations and forecasts.

To change the map : click on the green buttons with a black cross to zoom in, on the green button with a dash to zoom out, or on the green arrows for adjacent maps.


METAR-TAF: